sensor_id;sensor_type;location;lat;lon;timestamp;P1;durP1;ratioP1;P2;durP2;ratioP2
40939;SDS011;26666;50.156;7.700;2023-01-20T00:04:39;3.17;;;1.02;;
40939;SDS011;26666;50.156;7.700;2023-01-20T00:09:40;2.90;;;0.80;;
40939;SDS011;26666;50.156;7.700;2023-01-20T00:14:42;2.40;;;0.98;;
40939;SDS011;26666;50.156;7.700;2023-01-20T00:19:43;2.15;;;1.05;;
40939;SDS011;26666;50.156;7.700;2023-01-20T00:24:44;0.95;;;0.75;;
40939;SDS011;26666;50.156;7.700;2023-01-20T00:29:46;2.00;;;0.95;;
40939;SDS011;26666;50.156;7.700;2023-01-20T00:34:47;2.15;;;1.20;;
40939;SDS011;26666;50.156;7.700;2023-01-20T00:39:49;3.28;;;1.05;;
40939;SDS011;26666;50.156;7.700;2023-01-20T00:44:50;5.28;;;0.98;;
40939;SDS011;26666;50.156;7.700;2023-01-20T00:49:52;2.97;;;1.27;;
40939;SDS011;26666;50.156;7.700;2023-01-20T00:54:53;6.35;;;1.23;;
40939;SDS011;26666;50.156;7.700;2023-01-20T00:59:55;1.88;;;1.15;;
40939;SDS011;26666;50.156;7.700;2023-01-20T01:04:56;2.78;;;1.13;;
40939;SDS011;26666;50.156;7.700;2023-01-20T01:09:58;4.75;;;1.58;;
40939;SDS011;26666;50.156;7.700;2023-01-20T01:14:59;3.03;;;1.50;;
40939;SDS011;26666;50.156;7.700;2023-01-20T01:20:01;2.50;;;0.60;;
40939;SDS011;26666;50.156;7.700;2023-01-20T01:25:02;2.17;;;0.65;;
40939;SDS011;26666;50.156;7.700;2023-01-20T01:30:04;2.65;;;1.02;;
40939;SDS011;26666;50.156;7.700;2023-01-20T01:35:06;1.52;;;0.88;;
40939;SDS011;26666;50.156;7.700;2023-01-20T01:40:08;3.90;;;0.65;;
40939;SDS011;26666;50.156;7.700;2023-01-20T01:50:15;3.35;;;0.98;;
40939;SDS011;26666;50.156;7.700;2023-01-20T01:55:21;2.70;;;0.85;;
40939;SDS011;26666;50.156;7.700;2023-01-20T02:00:27;4.38;;;1.13;;
40939;SDS011;26666;50.156;7.700;2023-01-20T02:05:29;3.05;;;1.23;;
40939;SDS011;26666;50.156;7.700;2023-01-20T02:10:32;4.03;;;1.10;;
40939;SDS011;26666;50.156;7.700;2023-01-20T02:15:39;3.55;;;1.58;;
40939;SDS011;26666;50.156;7.700;2023-01-20T02:37:09;2.22;;;1.00;;
40939;SDS011;26666;50.156;7.700;2023-01-20T02:47:43;5.97;;;1.13;;
40939;SDS011;26666;50.156;7.700;2023-01-20T02:53:02;1.95;;;0.82;;
40939;SDS011;26666;50.156;7.700;2023-01-20T02:58:06;3.78;;;1.30;;
40939;SDS011;26666;50.156;7.700;2023-01-20T03:03:14;3.25;;;0.98;;
40939;SDS011;26666;50.156;7.700;2023-01-20T03:08:19;3.05;;;1.00;;
40939;SDS011;26666;50.156;7.700;2023-01-20T03:18:35;1.88;;;0.90;;
40939;SDS011;26666;50.156;7.700;2023-01-20T03:23:45;8.93;;;1.10;;
40939;SDS011;26666;50.156;7.700;2023-01-20T03:28:50;2.80;;;0.80;;
40939;SDS011;26666;50.156;7.700;2023-01-20T03:33:53;3.95;;;1.48;;
40939;SDS011;26666;50.156;7.700;2023-01-20T03:38:57;7.28;;;1.00;;
40939;SDS011;26666;50.156;7.700;2023-01-20T03:54:19;1.67;;;1.45;;
40939;SDS011;26666;50.156;7.700;2023-01-20T03:59:25;3.47;;;1.58;;
40939;SDS011;26666;50.156;7.700;2023-01-20T04:04:27;3.90;;;1.58;;
40939;SDS011;26666;50.156;7.700;2023-01-20T04:09:30;6.45;;;1.52;;
40939;SDS011;26666;50.156;7.700;2023-01-20T04:14:35;4.07;;;1.40;;
40939;SDS011;26666;50.156;7.700;2023-01-20T04:19:36;3.72;;;1.58;;
40939;SDS011;26666;50.156;7.700;2023-01-20T04:29:52;4.28;;;1.40;;
40939;SDS011;26666;50.156;7.700;2023-01-20T04:34:54;3.35;;;1.10;;
40939;SDS011;26666;50.156;7.700;2023-01-20T04:39:55;11.32;;;1.60;;
40939;SDS011;26666;50.156;7.700;2023-01-20T04:44:57;4.47;;;1.27;;
40939;SDS011;26666;50.156;7.700;2023-01-20T04:49:58;8.10;;;1.88;;
40939;SDS011;26666;50.156;7.700;2023-01-20T04:55:00;2.08;;;1.38;;
40939;SDS011;26666;50.156;7.700;2023-01-20T05:00:02;2.20;;;0.82;;
40939;SDS011;26666;50.156;7.700;2023-01-20T05:05:05;6.70;;;1.00;;
40939;SDS011;26666;50.156;7.700;2023-01-20T05:10:07;9.02;;;1.60;;
40939;SDS011;26666;50.156;7.700;2023-01-20T05:15:09;4.45;;;1.13;;
40939;SDS011;26666;50.156;7.700;2023-01-20T05:20:11;3.28;;;0.90;;
40939;SDS011;26666;50.156;7.700;2023-01-20T05:25:13;3.33;;;1.13;;
40939;SDS011;26666;50.156;7.700;2023-01-20T05:30:14;1.40;;;0.85;;
40939;SDS011;26666;50.156;7.700;2023-01-20T05:35:16;3.58;;;1.42;;
40939;SDS011;26666;50.156;7.700;2023-01-20T05:40:18;4.53;;;1.42;;
40939;SDS011;26666;50.156;7.700;2023-01-20T05:45:20;3.35;;;1.33;;
40939;SDS011;26666;50.156;7.700;2023-01-20T05:50:21;1.85;;;1.02;;
40939;SDS011;26666;50.156;7.700;2023-01-20T05:55:23;4.60;;;1.75;;
40939;SDS011;26666;50.156;7.700;2023-01-20T06:00:24;5.00;;;1.52;;
40939;SDS011;26666;50.156;7.700;2023-01-20T06:05:26;5.18;;;1.58;;
40939;SDS011;26666;50.156;7.700;2023-01-20T06:10:28;8.15;;;1.60;;
40939;SDS011;26666;50.156;7.700;2023-01-20T06:15:29;1.58;;;0.98;;
40939;SDS011;26666;50.156;7.700;2023-01-20T06:20:31;3.90;;;1.55;;
40939;SDS011;26666;50.156;7.700;2023-01-20T06:25:33;5.85;;;1.52;;
40939;SDS011;26666;50.156;7.700;2023-01-20T06:30:34;3.58;;;1.48;;
40939;SDS011;26666;50.156;7.700;2023-01-20T06:35:36;4.65;;;2.33;;
40939;SDS011;26666;50.156;7.700;2023-01-20T06:40:38;4.80;;;2.47;;
40939;SDS011;26666;50.156;7.700;2023-01-20T06:45:39;7.70;;;2.58;;
40939;SDS011;26666;50.156;7.700;2023-01-20T06:50:41;5.72;;;2.20;;
40939;SDS011;26666;50.156;7.700;2023-01-20T06:55:42;6.22;;;2.35;;
40939;SDS011;26666;50.156;7.700;2023-01-20T07:00:44;6.40;;;2.17;;
40939;SDS011;26666;50.156;7.700;2023-01-20T07:05:52;9.55;;;2.08;;
40939;SDS011;26666;50.156;7.700;2023-01-20T07:10:58;8.80;;;2.28;;
40939;SDS011;26666;50.156;7.700;2023-01-20T07:16:00;6.55;;;2.67;;
40939;SDS011;26666;50.156;7.700;2023-01-20T07:21:01;4.22;;;2.10;;
40939;SDS011;26666;50.156;7.700;2023-01-20T07:26:08;7.00;;;1.98;;
40939;SDS011;26666;50.156;7.700;2023-01-20T07:31:16;8.88;;;2.53;;
40939;SDS011;26666;50.156;7.700;2023-01-20T07:36:28;4.43;;;2.33;;
40939;SDS011;26666;50.156;7.700;2023-01-20T07:41:29;5.63;;;2.40;;
40939;SDS011;26666;50.156;7.700;2023-01-20T07:46:31;9.07;;;3.47;;
40939;SDS011;26666;50.156;7.700;2023-01-20T07:51:32;8.90;;;1.83;;
40939;SDS011;26666;50.156;7.700;2023-01-20T07:56:34;6.15;;;1.83;;
40939;SDS011;26666;50.156;7.700;2023-01-20T08:01:35;8.95;;;2.58;;
40939;SDS011;26666;50.156;7.700;2023-01-20T08:06:37;3.17;;;2.55;;
40939;SDS011;26666;50.156;7.700;2023-01-20T08:11:39;4.55;;;2.15;;
40939;SDS011;26666;50.156;7.700;2023-01-20T08:16:40;7.45;;;2.20;;
40939;SDS011;26666;50.156;7.700;2023-01-20T08:21:42;5.72;;;2.50;;
40939;SDS011;26666;50.156;7.700;2023-01-20T08:26:44;4.68;;;1.98;;
40939;SDS011;26666;50.156;7.700;2023-01-20T08:31:45;2.80;;;1.70;;
40939;SDS011;26666;50.156;7.700;2023-01-20T08:36:47;10.82;;;3.10;;
40939;SDS011;26666;50.156;7.700;2023-01-20T08:41:49;9.73;;;3.20;;
40939;SDS011;26666;50.156;7.700;2023-01-20T08:46:50;6.18;;;2.00;;
40939;SDS011;26666;50.156;7.700;2023-01-20T08:51:52;4.78;;;2.55;;
40939;SDS011;26666;50.156;7.700;2023-01-20T08:56:54;9.57;;;3.10;;
40939;SDS011;26666;50.156;7.700;2023-01-20T09:01:55;6.25;;;2.78;;
40939;SDS011;26666;50.156;7.700;2023-01-20T09:06:57;9.10;;;3.25;;
40939;SDS011;26666;50.156;7.700;2023-01-20T09:11:59;7.18;;;3.10;;
40939;SDS011;26666;50.156;7.700;2023-01-20T09:17:00;8.35;;;3.55;;
40939;SDS011;26666;50.156;7.700;2023-01-20T09:22:02;7.95;;;3.22;;
40939;SDS011;26666;50.156;7.700;2023-01-20T09:27:03;8.25;;;3.33;;
40939;SDS011;26666;50.156;7.700;2023-01-20T09:32:05;11.82;;;3.60;;
40939;SDS011;26666;50.156;7.700;2023-01-20T09:37:07;8.70;;;4.40;;
40939;SDS011;26666;50.156;7.700;2023-01-20T09:42:18;9.70;;;4.25;;
40939;SDS011;26666;50.156;7.700;2023-01-20T09:47:34;11.23;;;3.70;;
40939;SDS011;26666;50.156;7.700;2023-01-20T09:52:40;9.85;;;3.53;;
40939;SDS011;26666;50.156;7.700;2023-01-20T09:57:43;7.63;;;3.10;;
40939;SDS011;26666;50.156;7.700;2023-01-20T10:02:54;7.22;;;3.00;;
40939;SDS011;26666;50.156;7.700;2023-01-20T10:08:13;9.07;;;2.67;;
40939;SDS011;26666;50.156;7.700;2023-01-20T10:13:25;6.47;;;2.50;;
40939;SDS011;26666;50.156;7.700;2023-01-20T10:28:51;6.65;;;2.55;;
40939;SDS011;26666;50.156;7.700;2023-01-20T10:34:06;11.50;;;3.08;;
40939;SDS011;26666;50.156;7.700;2023-01-20T10:39:24;2.85;;;1.77;;
40939;SDS011;26666;50.156;7.700;2023-01-20T10:44:27;4.47;;;1.73;;
40939;SDS011;26666;50.156;7.700;2023-01-20T11:00:15;7.38;;;1.70;;
40939;SDS011;26666;50.156;7.700;2023-01-20T11:05:26;7.70;;;2.10;;
40939;SDS011;26666;50.156;7.700;2023-01-20T11:10:31;5.78;;;1.95;;
40939;SDS011;26666;50.156;7.700;2023-01-20T11:15:34;7.93;;;2.88;;
40939;SDS011;26666;50.156;7.700;2023-01-20T11:20:41;3.78;;;1.35;;
40939;SDS011;26666;50.156;7.700;2023-01-20T11:25:57;4.05;;;1.25;;
40939;SDS011;26666;50.156;7.700;2023-01-20T11:31:00;6.88;;;1.83;;
40939;SDS011;26666;50.156;7.700;2023-01-20T11:36:04;2.75;;;1.15;;
40939;SDS011;26666;50.156;7.700;2023-01-20T11:41:29;6.10;;;1.77;;
40939;SDS011;26666;50.156;7.700;2023-01-20T11:46:32;3.58;;;1.15;;
40939;SDS011;26666;50.156;7.700;2023-01-20T11:51:34;1.85;;;1.00;;
40939;SDS011;26666;50.156;7.700;2023-01-20T11:56:46;2.10;;;0.90;;
40939;SDS011;26666;50.156;7.700;2023-01-20T12:01:56;3.35;;;0.77;;
40939;SDS011;26666;50.156;7.700;2023-01-20T12:27:49;1.45;;;0.98;;
40939;SDS011;26666;50.156;7.700;2023-01-20T12:32:54;5.35;;;0.60;;
40939;SDS011;26666;50.156;7.700;2023-01-20T12:37:59;2.03;;;1.00;;
40939;SDS011;26666;50.156;7.700;2023-01-20T12:48:42;0.80;;;0.52;;
40939;SDS011;26666;50.156;7.700;2023-01-20T12:59:18;2.30;;;0.88;;
40939;SDS011;26666;50.156;7.700;2023-01-20T13:05:19;2.47;;;1.23;;
40939;SDS011;26666;50.156;7.700;2023-01-20T13:20:33;1.48;;;0.80;;
40939;SDS011;26666;50.156;7.700;2023-01-20T13:25:38;1.83;;;0.90;;
40939;SDS011;26666;50.156;7.700;2023-01-20T13:30:44;9.13;;;1.10;;
40939;SDS011;26666;50.156;7.700;2023-01-20T13:35:48;3.63;;;1.40;;
40939;SDS011;26666;50.156;7.700;2023-01-20T13:40:52;4.85;;;1.40;;
40939;SDS011;26666;50.156;7.700;2023-01-20T14:01:32;1.67;;;0.88;;
40939;SDS011;26666;50.156;7.700;2023-01-20T14:06:34;6.30;;;1.30;;
40939;SDS011;26666;50.156;7.700;2023-01-20T14:11:51;2.28;;;0.80;;
40939;SDS011;26666;50.156;7.700;2023-01-20T14:17:13;2.15;;;0.85;;
40939;SDS011;26666;50.156;7.700;2023-01-20T14:22:19;1.80;;;1.02;;
40939;SDS011;26666;50.156;7.700;2023-01-20T14:27:28;1.70;;;0.50;;
40939;SDS011;26666;50.156;7.700;2023-01-20T14:32:34;3.33;;;1.30;;
40939;SDS011;26666;50.156;7.700;2023-01-20T14:37:37;2.67;;;1.15;;
40939;SDS011;26666;50.156;7.700;2023-01-20T14:42:39;6.22;;;1.30;;
40939;SDS011;26666;50.156;7.700;2023-01-20T14:47:41;2.55;;;1.40;;
40939;SDS011;26666;50.156;7.700;2023-01-20T14:52:42;1.58;;;0.95;;
40939;SDS011;26666;50.156;7.700;2023-01-20T14:57:44;4.07;;;1.20;;
40939;SDS011;26666;50.156;7.700;2023-01-20T15:09:03;4.05;;;1.90;;
40939;SDS011;26666;50.156;7.700;2023-01-20T15:14:05;4.18;;;1.67;;
40939;SDS011;26666;50.156;7.700;2023-01-20T15:19:15;8.60;;;2.45;;
40939;SDS011;26666;50.156;7.700;2023-01-20T15:24:19;2.53;;;1.20;;
40939;SDS011;26666;50.156;7.700;2023-01-20T15:29:25;3.85;;;1.70;;
40939;SDS011;26666;50.156;7.700;2023-01-20T15:34:29;8.75;;;2.53;;
40939;SDS011;26666;50.156;7.700;2023-01-20T15:39:30;3.08;;;1.17;;
40939;SDS011;26666;50.156;7.700;2023-01-20T15:44:32;4.32;;;1.30;;
40939;SDS011;26666;50.156;7.700;2023-01-20T15:49:33;4.32;;;1.38;;
40939;SDS011;26666;50.156;7.700;2023-01-20T15:54:35;4.32;;;1.60;;
40939;SDS011;26666;50.156;7.700;2023-01-20T15:59:36;2.28;;;1.00;;
40939;SDS011;26666;50.156;7.700;2023-01-20T16:04:38;2.28;;;1.17;;
40939;SDS011;26666;50.156;7.700;2023-01-20T16:09:39;2.53;;;1.08;;
40939;SDS011;26666;50.156;7.700;2023-01-20T16:14:41;3.72;;;1.02;;
40939;SDS011;26666;50.156;7.700;2023-01-20T16:19:44;4.55;;;1.88;;
40939;SDS011;26666;50.156;7.700;2023-01-20T16:24:45;3.72;;;1.75;;
40939;SDS011;26666;50.156;7.700;2023-01-20T16:29:47;2.53;;;1.10;;
40939;SDS011;26666;50.156;7.700;2023-01-20T16:34:49;1.80;;;0.80;;
40939;SDS011;26666;50.156;7.700;2023-01-20T16:39:51;1.65;;;1.10;;
40939;SDS011;26666;50.156;7.700;2023-01-20T16:44:52;2.85;;;1.25;;
40939;SDS011;26666;50.156;7.700;2023-01-20T16:49:54;1.27;;;0.70;;
40939;SDS011;26666;50.156;7.700;2023-01-20T16:54:55;6.82;;;1.02;;
40939;SDS011;26666;50.156;7.700;2023-01-20T16:59:57;2.35;;;0.80;;
40939;SDS011;26666;50.156;7.700;2023-01-20T17:04:59;1.02;;;0.50;;
40939;SDS011;26666;50.156;7.700;2023-01-20T17:10:00;2.17;;;1.05;;
40939;SDS011;26666;50.156;7.700;2023-01-20T17:15:02;4.05;;;1.00;;
40939;SDS011;26666;50.156;7.700;2023-01-20T17:20:04;5.05;;;1.38;;
40939;SDS011;26666;50.156;7.700;2023-01-20T17:25:07;3.65;;;1.27;;
40939;SDS011;26666;50.156;7.700;2023-01-20T17:30:09;3.30;;;1.17;;
40939;SDS011;26666;50.156;7.700;2023-01-20T17:35:11;3.85;;;1.10;;
40939;SDS011;26666;50.156;7.700;2023-01-20T17:40:13;3.17;;;1.25;;
40939;SDS011;26666;50.156;7.700;2023-01-20T17:45:15;4.70;;;1.02;;
40939;SDS011;26666;50.156;7.700;2023-01-20T17:50:16;8.27;;;1.00;;
40939;SDS011;26666;50.156;7.700;2023-01-20T17:55:18;1.35;;;0.85;;
40939;SDS011;26666;50.156;7.700;2023-01-20T18:00:20;0.98;;;0.60;;
40939;SDS011;26666;50.156;7.700;2023-01-20T18:05:22;2.92;;;1.38;;
40939;SDS011;26666;50.156;7.700;2023-01-20T18:10:23;2.40;;;0.70;;
40939;SDS011;26666;50.156;7.700;2023-01-20T18:15:25;2.92;;;1.27;;
40939;SDS011;26666;50.156;7.700;2023-01-20T18:20:26;1.63;;;0.57;;
40939;SDS011;26666;50.156;7.700;2023-01-20T18:25:28;3.05;;;1.48;;
40939;SDS011;26666;50.156;7.700;2023-01-20T18:30:30;1.58;;;0.70;;
40939;SDS011;26666;50.156;7.700;2023-01-20T18:35:32;2.70;;;1.05;;
40939;SDS011;26666;50.156;7.700;2023-01-20T18:40:33;4.55;;;1.48;;
40939;SDS011;26666;50.156;7.700;2023-01-20T18:45:35;2.53;;;1.40;;
40939;SDS011;26666;50.156;7.700;2023-01-20T18:50:36;2.45;;;1.08;;
40939;SDS011;26666;50.156;7.700;2023-01-20T18:55:38;3.25;;;1.42;;
40939;SDS011;26666;50.156;7.700;2023-01-20T19:00:39;2.40;;;1.13;;
40939;SDS011;26666;50.156;7.700;2023-01-20T19:05:41;1.98;;;0.82;;
40939;SDS011;26666;50.156;7.700;2023-01-20T19:10:42;2.28;;;1.15;;
40939;SDS011;26666;50.156;7.700;2023-01-20T19:15:44;2.67;;;0.95;;
40939;SDS011;26666;50.156;7.700;2023-01-20T19:20:45;1.08;;;0.52;;
40939;SDS011;26666;50.156;7.700;2023-01-20T19:25:47;1.05;;;0.80;;
40939;SDS011;26666;50.156;7.700;2023-01-20T19:31:06;1.05;;;0.47;;
40939;SDS011;26666;50.156;7.700;2023-01-20T19:36:10;1.60;;;1.00;;
40939;SDS011;26666;50.156;7.700;2023-01-20T19:41:17;2.50;;;0.65;;
40939;SDS011;26666;50.156;7.700;2023-01-20T19:46:21;0.88;;;0.50;;
40939;SDS011;26666;50.156;7.700;2023-01-20T19:51:28;5.07;;;1.10;;
40939;SDS011;26666;50.156;7.700;2023-01-20T19:56:31;3.15;;;1.83;;
40939;SDS011;26666;50.156;7.700;2023-01-20T20:01:35;1.52;;;0.98;;
40939;SDS011;26666;50.156;7.700;2023-01-20T20:06:37;3.63;;;1.17;;
40939;SDS011;26666;50.156;7.700;2023-01-20T20:11:41;1.52;;;0.98;;
40939;SDS011;26666;50.156;7.700;2023-01-20T20:16:42;2.25;;;1.17;;
40939;SDS011;26666;50.156;7.700;2023-01-20T20:21:44;7.13;;;1.27;;
40939;SDS011;26666;50.156;7.700;2023-01-20T20:26:46;0.52;;;0.52;;
40939;SDS011;26666;50.156;7.700;2023-01-20T20:31:48;1.55;;;1.10;;
40939;SDS011;26666;50.156;7.700;2023-01-20T20:36:49;5.85;;;2.45;;
40939;SDS011;26666;50.156;7.700;2023-01-20T20:41:51;4.32;;;2.10;;
40939;SDS011;26666;50.156;7.700;2023-01-20T20:46:52;2.78;;;1.20;;
40939;SDS011;26666;50.156;7.700;2023-01-20T20:51:54;1.77;;;0.95;;
40939;SDS011;26666;50.156;7.700;2023-01-20T20:56:55;2.45;;;1.52;;
40939;SDS011;26666;50.156;7.700;2023-01-20T21:01:57;1.30;;;0.68;;
40939;SDS011;26666;50.156;7.700;2023-01-20T21:06:58;2.80;;;2.15;;
40939;SDS011;26666;50.156;7.700;2023-01-20T21:12:00;2.45;;;1.27;;
40939;SDS011;26666;50.156;7.700;2023-01-20T21:17:01;3.92;;;0.75;;
40939;SDS011;26666;50.156;7.700;2023-01-20T21:22:03;2.10;;;1.10;;
40939;SDS011;26666;50.156;7.700;2023-01-20T21:27:04;1.60;;;0.68;;
40939;SDS011;26666;50.156;7.700;2023-01-20T21:32:06;1.38;;;0.95;;
40939;SDS011;26666;50.156;7.700;2023-01-20T21:37:07;3.17;;;1.20;;
40939;SDS011;26666;50.156;7.700;2023-01-20T21:42:09;3.80;;;1.65;;
40939;SDS011;26666;50.156;7.700;2023-01-20T21:47:10;3.45;;;1.70;;
40939;SDS011;26666;50.156;7.700;2023-01-20T21:52:16;1.80;;;1.25;;
40939;SDS011;26666;50.156;7.700;2023-01-20T21:57:19;3.13;;;1.20;;
40939;SDS011;26666;50.156;7.700;2023-01-20T22:02:21;2.85;;;1.60;;
40939;SDS011;26666;50.156;7.700;2023-01-20T22:07:22;2.45;;;1.40;;
40939;SDS011;26666;50.156;7.700;2023-01-20T22:12:24;5.28;;;1.70;;
40939;SDS011;26666;50.156;7.700;2023-01-20T22:17:25;5.18;;;2.42;;
40939;SDS011;26666;50.156;7.700;2023-01-20T22:22:27;4.35;;;1.70;;
40939;SDS011;26666;50.156;7.700;2023-01-20T22:27:31;4.15;;;1.77;;
40939;SDS011;26666;50.156;7.700;2023-01-20T22:32:33;3.20;;;1.90;;
40939;SDS011;26666;50.156;7.700;2023-01-20T22:37:34;3.60;;;1.85;;
40939;SDS011;26666;50.156;7.700;2023-01-20T22:42:36;2.53;;;1.27;;
40939;SDS011;26666;50.156;7.700;2023-01-20T22:47:38;2.08;;;0.93;;
40939;SDS011;26666;50.156;7.700;2023-01-20T22:52:39;5.72;;;1.38;;
40939;SDS011;26666;50.156;7.700;2023-01-20T22:57:40;1.50;;;1.05;;
40939;SDS011;26666;50.156;7.700;2023-01-20T23:02:42;5.28;;;1.77;;
40939;SDS011;26666;50.156;7.700;2023-01-20T23:07:43;3.28;;;1.60;;
40939;SDS011;26666;50.156;7.700;2023-01-20T23:12:45;4.47;;;1.88;;
40939;SDS011;26666;50.156;7.700;2023-01-20T23:17:46;2.83;;;1.33;;
40939;SDS011;26666;50.156;7.700;2023-01-20T23:22:48;2.30;;;1.05;;
40939;SDS011;26666;50.156;7.700;2023-01-20T23:27:49;2.00;;;1.00;;
40939;SDS011;26666;50.156;7.700;2023-01-20T23:32:51;5.90;;;1.13;;
40939;SDS011;26666;50.156;7.700;2023-01-20T23:37:53;3.22;;;1.15;;
40939;SDS011;26666;50.156;7.700;2023-01-20T23:42:54;1.77;;;1.55;;
40939;SDS011;26666;50.156;7.700;2023-01-20T23:47:56;3.08;;;1.30;;
40939;SDS011;26666;50.156;7.700;2023-01-20T23:52:57;2.47;;;1.40;;
40939;SDS011;26666;50.156;7.700;2023-01-20T23:57:59;3.38;;;1.35;;
